MGB weather

Mount Gambier Airport
South Australia, Australia

Public forecast

Using degrees Celsius for public forecast. Weather courtesy of forecast.io.

Current aviation weather report (METAR) for Mount Gambier Airport

Retrieved 2019/10/14 00:28 UTC (19 minutes ago):

YMTG 140028Z AUTO 23010KT 9999 // SCT016 BKN025 16/13 Q1014

Closest aviation forecast (TAF) to Mount Gambier Airport

Closest forecast is Avalon Airport, 175.4 nm (324.9 km) E. Retrieved 2019-10-14 00:00 UTC (47 minutes ago):

TAF YMAV 132306Z 1400/1424 27008KT 9999 -SHRA SCT025 SCT040 FM140500 19010KT 9999 FEW015 BKN025 FM141200 23006KT 9999 SCT015 BKN020 INTER 1406/1409 5000 SHRA BKN015